Time,TemperatureF,DewpointF,PressureIn,WindDirection,WindDirectionDegrees,WindSpeedMPH,WindSpeedGustMPH,Humidity,HourlyPrecipIn,Conditions,Clouds,dailyrainin,SolarRadiationWatts/m^2,SoftwareType,DateUTC
2013-02-20 00:01:00,32.0,17.0,-100.00,SSW,197,7.0,16.0,54,0.00,,,0.00,0.000000,,2013-02-20 07:01:00,
2013-02-20 00:32:00,30.0,15.0,-100.00,South,183,7.0,20.0,52,0.00,,,0.00,0.000000,,2013-02-20 07:32:00,
2013-02-20 00:42:00,30.0,15.0,-100.00,South,183,7.0,20.0,52,0.00,,,0.00,0.000000,,2013-02-20 07:42:00,
2013-02-20 00:52:00,30.0,15.0,-100.00,South,183,7.0,20.0,52,0.00,,,0.00,0.000000,,2013-02-20 07:52:00,
2013-02-20 01:01:00,30.0,15.0,-100.00,South,183,7.0,20.0,52,0.00,,,0.00,0.000000,,2013-02-20 08:01:00,
2013-02-20 01:22:00,29.0,15.0,-100.00,South,182,6.0,21.0,56,0.00,,,0.00,0.000000,,2013-02-20 08:22:00,
2013-02-20 01:32:00,29.0,15.0,-100.00,South,182,6.0,21.0,56,0.00,,,0.00,0.000000,,2013-02-20 08:32:00,
2013-02-20 01:42:00,29.0,15.0,-100.00,South,182,6.0,21.0,56,0.00,,,0.00,0.000000,,2013-02-20 08:42:00,
2013-02-20 01:52:00,29.0,15.0,-100.00,South,182,6.0,21.0,56,0.00,,,0.00,0.000000,,2013-02-20 08:52:00,
2013-02-20 02:01:00,29.0,15.0,-100.00,South,182,6.0,21.0,56,0.00,,,0.00,0.000000,,2013-02-20 09:01:00,
2013-02-20 02:32:00,28.0,17.0,-100.00,NW,321,9.0,24.0,63,0.00,,,0.00,0.000000,,2013-02-20 09:32:00,
2013-02-20 02:42:00,28.0,17.0,-100.00,NW,321,9.0,24.0,63,0.00,,,0.00,0.000000,,2013-02-20 09:42:00,
2013-02-20 02:52:00,28.0,17.0,-100.00,NW,321,9.0,24.0,63,0.00,,,0.00,0.000000,,2013-02-20 09:52:00,
2013-02-20 03:01:00,28.0,17.0,-100.00,NW,321,9.0,24.0,63,0.00,,,0.00,0.000000,,2013-02-20 10:01:00,
2013-02-20 03:32:00,28.0,20.0,-100.00,South,191,13.0,28.0,71,0.00,,,0.00,0.000000,,2013-02-20 10:32:00,
2013-02-20 03:42:00,28.0,20.0,-100.00,South,191,13.0,28.0,71,0.00,,,0.00,0.000000,,2013-02-20 10:42:00,
2013-02-20 03:52:00,28.0,20.0,-100.00,South,191,13.0,28.0,71,0.00,,,0.00,0.000000,,2013-02-20 10:52:00,
2013-02-20 04:01:00,28.0,20.0,-100.00,South,191,13.0,28.0,71,0.00,,,0.00,0.000000,,2013-02-20 11:01:00,
2013-02-20 04:32:00,27.0,20.0,-100.00,South,186,11.0,25.0,76,0.00,,,0.00,0.000000,,2013-02-20 11:32:00,
2013-02-20 04:42:00,27.0,20.0,-100.00,South,186,11.0,25.0,76,0.00,,,0.00,0.000000,,2013-02-20 11:42:00,
2013-02-20 04:52:00,27.0,20.0,-100.00,South,186,11.0,25.0,76,0.00,,,0.00,0.000000,,2013-02-20 11:52:00,
2013-02-20 05:01:00,27.0,20.0,-100.00,South,186,11.0,25.0,76,0.00,,,0.00,0.000000,,2013-02-20 12:01:00,
2013-02-20 05:32:00,27.0,24.0,-100.00,South,186,8.0,23.0,90,0.00,,,0.00,0.000000,,2013-02-20 12:32:00,
2013-02-20 05:42:00,27.0,24.0,-100.00,South,186,8.0,23.0,90,0.00,,,0.00,0.000000,,2013-02-20 12:42:00,
2013-02-20 05:52:00,27.0,24.0,-100.00,South,186,8.0,23.0,90,0.00,,,0.00,0.000000,,2013-02-20 12:52:00,
2013-02-20 06:01:00,27.0,24.0,-100.00,South,186,8.0,23.0,90,0.00,,,0.00,0.000000,,2013-02-20 13:01:00,
2013-02-20 06:32:00,26.0,24.0,-100.00,NNW,328,4.0,16.0,92,0.00,,,0.00,0.000000,,2013-02-20 13:32:00,
2013-02-20 06:42:00,26.0,24.0,-100.00,NNW,328,4.0,16.0,92,0.00,,,0.00,0.000000,,2013-02-20 13:42:00,
2013-02-20 06:51:00,26.0,24.0,-100.00,NNW,328,4.0,16.0,92,0.00,,,0.00,0.000000,,2013-02-20 13:51:00,
2013-02-20 07:01:00,26.0,24.0,-100.00,NNW,328,4.0,16.0,92,0.00,,,0.00,0.000000,,2013-02-20 14:01:00,
2013-02-20 07:32:00,26.0,24.0,-100.00,SSW,206,7.0,16.0,91,0.00,,,0.00,0.000000,,2013-02-20 14:32:00,
2013-02-20 07:42:00,26.0,24.0,-100.00,SSW,206,7.0,16.0,91,0.00,,,0.00,0.000000,,2013-02-20 14:42:00,
2013-02-20 07:52:00,26.0,24.0,-100.00,SSW,206,7.0,16.0,91,0.00,,,0.00,0.000000,,2013-02-20 14:52:00,
2013-02-20 08:01:00,26.0,24.0,-100.00,SSW,206,7.0,16.0,91,0.00,,,0.00,0.000000,,2013-02-20 15:01:00,
2013-02-20 08:32:00,27.0,23.0,-100.00,SSW,201,5.0,16.0,85,0.00,,,0.00,52.000000,,2013-02-20 15:32:00,
2013-02-20 08:42:00,27.0,23.0,-100.00,SSW,201,5.0,16.0,85,0.00,,,0.00,52.000000,,2013-02-20 15:42:00,
2013-02-20 08:52:00,27.0,23.0,-100.00,SSW,201,5.0,16.0,85,0.00,,,0.00,52.000000,,2013-02-20 15:52:00,
2013-02-20 09:01:00,27.0,23.0,-100.00,SSW,201,5.0,16.0,85,0.00,,,0.00,52.000000,,2013-02-20 16:01:00,
2013-02-20 09:32:00,27.0,20.0,-100.00,WNW,301,7.0,14.0,75,0.00,,,-99.99,240.000000,,2013-02-20 16:32:00,
2013-02-20 09:42:00,27.0,20.0,-100.00,WNW,301,7.0,14.0,75,0.00,,,-99.99,240.000000,,2013-02-20 16:42:00,
2013-02-20 09:52:00,27.0,20.0,-100.00,WNW,301,7.0,14.0,75,0.00,,,-99.99,240.000000,,2013-02-20 16:52:00,
2013-02-20 10:01:00,27.0,20.0,-100.00,WNW,301,7.0,14.0,75,0.00,,,-99.99,240.000000,,2013-02-20 17:01:00,
2013-02-20 10:32:00,29.0,21.0,-100.00,SSW,204,6.0,17.0,73,0.00,,,0.00,326.000000,,2013-02-20 17:32:00,
2013-02-20 10:42:00,29.0,21.0,-100.00,SSW,204,6.0,17.0,73,0.00,,,0.00,326.000000,,2013-02-20 17:42:00,
2013-02-20 10:52:00,29.0,21.0,-100.00,SSW,204,6.0,17.0,73,0.00,,,0.00,326.000000,,2013-02-20 17:52:00,
2013-02-20 11:02:00,29.0,21.0,-100.00,SSW,204,6.0,17.0,73,0.00,,,0.00,326.000000,,2013-02-20 18:02:00,
2013-02-20 11:22:00,33.0,24.0,-100.00,NNE,15,7.0,15.0,68,0.00,,,0.00,493.000000,,2013-02-20 18:22:00,
2013-02-20 11:32:00,33.0,24.0,-100.00,NNE,15,7.0,15.0,68,0.00,,,0.00,493.000000,,2013-02-20 18:32:00,
2013-02-20 11:42:00,33.0,24.0,-100.00,NNE,15,7.0,15.0,68,0.00,,,0.00,493.000000,,2013-02-20 18:42:00,
2013-02-20 11:52:00,33.0,24.0,-100.00,NNE,15,7.0,15.0,68,0.00,,,0.00,493.000000,,2013-02-20 18:52:00,
2013-02-20 12:01:00,33.0,24.0,-100.00,NNE,15,7.0,15.0,68,0.00,,,0.00,493.000000,,2013-02-20 19:01:00,
2013-02-20 12:32:00,33.0,21.0,-100.00,WNW,292,2.0,15.0,62,0.00,,,0.00,443.000000,,2013-02-20 19:32:00,
2013-02-20 12:42:00,33.0,21.0,-100.00,WNW,292,2.0,15.0,62,0.00,,,0.00,443.000000,,2013-02-20 19:42:00,
2013-02-20 12:52:00,33.0,21.0,-100.00,WNW,292,2.0,15.0,62,0.00,,,0.00,443.000000,,2013-02-20 19:52:00,
2013-02-20 13:01:00,33.0,21.0,-100.00,WNW,292,2.0,15.0,62,0.00,,,0.00,443.000000,,2013-02-20 20:01:00,
2013-02-20 13:31:00,31.0,23.0,-100.00,East,83,5.0,8.0,72,0.00,,,0.00,316.000000,,2013-02-20 20:31:00,
2013-02-20 13:41:00,31.0,23.0,-100.00,East,83,5.0,8.0,72,0.00,,,0.00,316.000000,,2013-02-20 20:41:00,
2013-02-20 13:51:00,31.0,23.0,-100.00,East,83,5.0,8.0,72,0.00,,,0.00,316.000000,,2013-02-20 20:51:00,
2013-02-20 14:01:00,31.0,23.0,-100.00,East,83,5.0,8.0,72,0.00,,,0.00,316.000000,,2013-02-20 21:01:00,
2013-02-20 14:32:00,28.0,20.0,-100.00,South,188,7.0,16.0,70,0.00,,,0.00,352.000000,,2013-02-20 21:32:00,
2013-02-20 14:42:00,28.0,20.0,-100.00,South,188,7.0,16.0,70,0.00,,,0.00,352.000000,,2013-02-20 21:42:00,
2013-02-20 14:52:00,28.0,20.0,-100.00,South,188,7.0,16.0,70,0.00,,,0.00,352.000000,,2013-02-20 21:52:00,
2013-02-20 15:01:00,28.0,20.0,-100.00,South,188,7.0,16.0,70,0.00,,,0.00,352.000000,,2013-02-20 22:01:00,
2013-02-20 15:32:00,28.0,20.0,-100.00,West,276,4.0,17.0,72,0.00,,,0.00,260.000000,,2013-02-20 22:32:00,
2013-02-20 15:43:00,28.0,20.0,-100.00,West,276,4.0,17.0,72,0.00,,,0.00,260.000000,,2013-02-20 22:43:00,
2013-02-20 15:51:00,28.0,20.0,-100.00,West,276,4.0,17.0,72,0.00,,,0.00,260.000000,,2013-02-20 22:51:00,
2013-02-20 16:01:00,28.0,20.0,-100.00,West,276,4.0,17.0,72,0.00,,,0.00,260.000000,,2013-02-20 23:01:00,
2013-02-20 16:22:00,25.0,18.0,-100.00,North,8,5.0,15.0,73,0.00,,,0.00,207.000000,,2013-02-20 23:22:00,
2013-02-20 16:32:00,25.0,18.0,-100.00,North,8,5.0,15.0,73,0.00,,,0.00,207.000000,,2013-02-20 23:32:00,
2013-02-20 16:42:00,25.0,18.0,-100.00,North,8,5.0,15.0,73,0.00,,,0.00,207.000000,,2013-02-20 23:42:00,
2013-02-20 16:52:00,25.0,18.0,-100.00,North,8,5.0,15.0,73,0.00,,,0.00,207.000000,,2013-02-20 23:52:00,
2013-02-20 17:02:00,25.0,18.0,-100.00,North,8,5.0,15.0,73,0.00,,,0.00,207.000000,,2013-02-21 00:02:00,
2013-02-20 17:22:00,24.0,19.0,-100.00,SSE,166,3.0,15.0,80,0.00,,,0.00,95.000000,,2013-02-21 00:22:00,
2013-02-20 17:32:00,24.0,19.0,-100.00,SSE,166,3.0,15.0,80,0.00,,,0.00,95.000000,,2013-02-21 00:32:00,
2013-02-20 17:42:00,24.0,19.0,-100.00,SSE,166,3.0,15.0,80,0.00,,,0.00,95.000000,,2013-02-21 00:42:00,
2013-02-20 17:52:00,24.0,19.0,-100.00,SSE,166,3.0,15.0,80,0.00,,,0.00,95.000000,,2013-02-21 00:52:00,
2013-02-20 18:01:00,24.0,19.0,-100.00,SSE,166,3.0,15.0,80,0.00,,,0.00,95.000000,,2013-02-21 01:01:00,
2013-02-20 18:21:00,23.0,19.0,-100.00,NE,38,3.0,13.0,86,0.00,,,0.00,26.000000,,2013-02-21 01:21:00,
2013-02-20 18:32:00,23.0,19.0,-100.00,NE,38,3.0,13.0,86,0.00,,,0.00,26.000000,,2013-02-21 01:32:00,
2013-02-20 18:42:00,23.0,19.0,-100.00,NE,38,3.0,13.0,86,0.00,,,0.00,26.000000,,2013-02-21 01:42:00,
2013-02-20 18:52:00,23.0,19.0,-100.00,NE,38,3.0,13.0,86,0.00,,,0.00,26.000000,,2013-02-21 01:52:00,
2013-02-20 19:01:00,23.0,19.0,-100.00,NE,38,3.0,13.0,86,0.00,,,0.00,26.000000,,2013-02-21 02:01:00,
2013-02-20 19:22:00,21.0,17.0,-100.00,WNW,285,3.0,15.0,84,0.00,,,0.00,0.000000,,2013-02-21 02:22:00,
2013-02-20 19:32:00,21.0,17.0,-100.00,WNW,285,3.0,15.0,84,0.00,,,0.00,0.000000,,2013-02-21 02:32:00,
2013-02-20 19:42:00,21.0,17.0,-100.00,WNW,285,3.0,15.0,84,0.00,,,0.00,0.000000,,2013-02-21 02:42:00,
2013-02-20 19:51:00,21.0,17.0,-100.00,WNW,285,3.0,15.0,84,0.00,,,0.00,0.000000,,2013-02-21 02:51:00,
2013-02-20 20:01:00,21.0,17.0,-100.00,WNW,285,3.0,15.0,84,0.00,,,0.00,0.000000,,2013-02-21 03:01:00,
2013-02-20 20:32:00,21.0,17.0,-100.00,NE,52,2.0,13.0,84,0.00,,,0.00,0.000000,,2013-02-21 03:32:00,
2013-02-20 20:42:00,21.0,17.0,-100.00,NE,52,2.0,13.0,84,0.00,,,0.00,0.000000,,2013-02-21 03:42:00,
2013-02-20 20:52:00,21.0,17.0,-100.00,NE,52,2.0,13.0,84,0.00,,,0.00,0.000000,,2013-02-21 03:52:00,
2013-02-20 21:01:00,21.0,17.0,-100.00,NE,52,2.0,13.0,84,0.00,,,0.00,0.000000,,2013-02-21 04:01:00,
2013-02-20 21:32:00,20.0,16.0,-100.00,SW,214,4.0,10.0,85,0.00,,,0.00,0.000000,,2013-02-21 04:32:00,
2013-02-20 21:42:00,20.0,16.0,-100.00,SW,214,4.0,10.0,85,0.00,,,0.00,0.000000,,2013-02-21 04:42:00,
2013-02-20 21:52:00,20.0,16.0,-100.00,SW,214,4.0,10.0,85,0.00,,,0.00,0.000000,,2013-02-21 04:52:00,
2013-02-20 22:02:00,20.0,16.0,-100.00,SW,214,4.0,10.0,85,0.00,,,0.00,0.000000,,2013-02-21 05:02:00,
2013-02-20 22:22:00,20.0,17.0,-100.00,South,178,2.0,12.0,87,0.00,,,0.00,0.000000,,2013-02-21 05:22:00,
2013-02-20 22:37:00,20.0,17.0,-100.00,South,178,2.0,12.0,87,0.00,,,0.00,0.000000,,2013-02-21 05:37:00,
2013-02-20 22:46:00,20.0,17.0,-100.00,South,178,2.0,12.0,87,0.00,,,0.00,0.000000,,2013-02-21 05:46:00,
2013-02-20 22:58:00,20.0,17.0,-100.00,South,178,2.0,12.0,87,0.00,,,0.00,0.000000,,2013-02-21 05:58:00,
2013-02-20 23:01:00,20.0,17.0,-100.00,South,178,2.0,12.0,87,0.00,,,0.00,0.000000,,2013-02-21 06:01:00,
2013-02-20 23:21:00,21.0,18.0,-100.00,South,176,4.0,9.0,87,0.00,,,0.00,0.000000,,2013-02-21 06:21:00,
2013-02-20 23:31:00,21.0,18.0,-100.00,South,176,4.0,9.0,87,0.00,,,0.00,0.000000,,2013-02-21 06:31:00,
2013-02-20 23:41:00,21.0,18.0,-100.00,South,176,4.0,9.0,87,0.00,,,0.00,0.000000,,2013-02-21 06:41:00,
2013-02-20 23:51:00,21.0,18.0,-100.00,South,176,4.0,9.0,87,0.00,,,0.00,0.000000,,2013-02-21 06:51:00,